Saint Michaels, Arizona
Current Conditions -  °F | °C
As of 8:53 PM on Monday 26 Jan 2015 (Local Time) from KRQE Reporting Station
Clear Clear  
Wind Chill: 34°   Ceiling: Unl
Heat Index: 34°   Visibility: 10mi
Dew Point: 25°   Wind: 0mph
Humidity: 70%   Direction: NA
Pressure: 30.34"   Gusts: NA
Location:  35.64°N, 109.1°W
Report Text: KRQE 270353Z AUTO 00000KT 10SM CLR 01/M04 A3034 RMK AO2 SLP261 T00111039 TSNO
Loading
Personal Weather Stations






























Interactive Weather Map New forecast layout! Learn more

10-Day Weather Forecast

Advertisements
Track Severe Weather on mobile